Forside
METAR-TAF:

METAR-TAF

Lufthavne :

Lafayette, Indiana, USA

Breddekreds: 40-24-45N, længdekreds: 086-56-51W, højde: 184 m

Aktuelle vejr

Denne rapport blev lavet for 33 minutter siden, kl. 17:54 UTC
Vind 11 kt fra sydsydvest
Temperatur 10°C
Fugtighed 46%
Tryk 1017 hPa
Sigt: 16.1 km
skyfri

METAR: KLAF 231754Z 21011KT 10SM CLR 10/M01 A3002 RMK AO2 SLP169 T01001011 10106 20006 58019

Tid: 13:27 (18:27 UTC)

Vejrudsigter

Denne rapport blev lavet for 1 time og 6 minutter siden, kl. 17:21 UTC
Foreløbig gælder fra 23 på 18 UTC til 24 på 18 UTC
Vind 11 kt fra sydvest
Sigt: 10 km
Nogle få skyer i en højde af 20000 ft
Fra 24 på 0800 UTC
Vind 6 kt fra sydvest
Sigt: 10 km
Brudte skyer i en højde af 3000 ft
Fra 24 på 1000 UTC
Vind 4 kt fra varierende retninger
Sigt: 10 km
Overskyet i en højde af 900 ft
Fra 24 på 1200 UTC
Vind 4 kt fra varierende retninger
Sigt: 3.2 km
Overskyet i en højde af 600 ft
let regn

TAF: KLAF 231721Z 2318/2418 22011KT P6SM FEW200 FM240800 22006KT P6SM BKN030 FM241000 VRB04KT P6SM OVC009 FM241200 VRB04KT 2SM -RA OVC006

Vejrobservationer og prognoser fra mere end 4000 lufthavne (METAR og TAF).

De gule og røde prikker repræsenterer de meteorologiske stationer.

Flyt musen over at se navnet på stationen.

Så klik over at se vejr observationer og prognoser.

At skifte det kort: Klik på de grønne knapper med et sort kors for at zoome ind; på den grønne knap med en bindestreg for at zoome ud; eller på de grønne pile for tilstødende kort.


METAR-TAF: